Time;durP1;ratioP1;P1;durP2;ratioP2;P2;SDS_P1;SDS_P2;PMS_P1;PMS_P2;Temp;Humidity;BMP_temperature;BMP_pressure;BME280_temperature;BME280_humidity;BME280_pressure;Samples;Min_cycle;Max_cycle;Signal;HPM_P1;HPM_P2
2021/10/01 00:00:09;;;;;;;5.47;0.90;;;12.90;84.70;;;;;;4991155;28;20030;-69
2021/10/01 00:02:35;;;;;;;6.97;1.00;;;12.90;84.60;;;;;;4993291;28;20031;-69
2021/10/01 00:05:00;;;;;;;6.68;1.30;;;12.90;85.00;;;;;;4995148;28;20038;-69
2021/10/01 00:07:27;;;;;;;4.70;0.90;;;12.90;85.20;;;;;;4994990;28;20480;-69
2021/10/01 00:09:54;;;;;;;2.67;1.00;;;12.90;84.90;;;;;;4995250;28;20365;-69
2021/10/01 00:12:19;;;;;;;5.32;0.77;;;12.90;85.00;;;;;;4994912;28;20081;-69
2021/10/01 00:14:45;;;;;;;5.90;1.33;;;12.80;84.70;;;;;;4994885;28;20086;-69
2021/10/01 00:17:11;;;;;;;6.13;1.48;;;12.80;85.00;;;;;;4994954;28;20031;-67
2021/10/01 00:19:38;;;;;;;27.27;7.35;;;12.80;84.90;;;;;;4994968;28;20048;-70
2021/10/01 00:22:04;;;;;;;3.88;1.30;;;12.80;85.30;;;;;;4995020;28;20301;-69
2021/10/01 00:24:31;;;;;;;4.15;0.90;;;12.80;85.10;;;;;;4993964;28;20038;-69
2021/10/01 00:26:57;;;;;;;2.10;0.73;;;12.80;85.50;;;;;;4994731;28;20060;-69
2021/10/01 00:29:23;;;;;;;6.78;0.88;;;12.80;85.10;;;;;;4994592;28;20461;-69
2021/10/01 00:31:48;;;;;;;3.33;0.93;;;12.80;85.00;;;;;;4994534;28;20042;-67
2021/10/01 00:34:14;;;;;;;5.60;0.90;;;12.80;85.10;;;;;;4993842;28;20034;-68
2021/10/01 00:36:40;;;;;;;1.85;0.88;;;12.80;85.10;;;;;;4994832;28;20034;-69
2021/10/01 00:39:07;;;;;;;4.30;0.82;;;12.80;85.80;;;;;;4994587;28;20031;-69
2021/10/01 00:41:33;;;;;;;3.40;0.95;;;12.70;86.00;;;;;;4994349;28;20026;-69
2021/10/01 00:43:59;;;;;;;4.68;0.90;;;12.70;85.70;;;;;;4994215;28;20496;-69
2021/10/01 00:46:26;;;;;;;2.22;0.90;;;12.70;86.10;;;;;;4993494;28;20054;-69
2021/10/01 00:48:51;;;;;;;4.35;0.95;;;12.70;86.10;;;;;;4994403;28;20050;-69
2021/10/01 00:51:18;;;;;;;5.22;1.13;;;12.70;86.20;;;;;;4994259;28;20030;-70
2021/10/01 00:53:44;;;;;;;2.15;0.70;;;12.60;86.70;;;;;;4994296;28;20338;-69
2021/10/01 00:56:10;;;;;;;3.33;0.82;;;12.70;86.20;;;;;;4994182;28;20537;-69
2021/10/01 00:58:36;;;;;;;3.60;1.10;;;12.60;86.40;;;;;;4994243;28;20035;-70
2021/10/01 01:01:11;;;;;;;5.45;0.70;;;12.70;86.40;;;;;;4994425;28;20037;-68
2021/10/01 01:04:00;;;;;;;3.10;0.77;;;12.60;86.30;;;;;;4994301;28;20121;-67
2021/10/01 01:06:42;;;;;;;3.45;0.85;;;12.60;86.60;;;;;;4993978;28;20056;-69
2021/10/01 01:09:27;;;;;;;8.32;0.80;;;12.60;86.70;;;;;;4993959;28;20085;-68
2021/10/01 01:12:49;;;;;;;2.65;0.80;;;12.60;86.90;;;;;;4993866;28;20117;-68
2021/10/01 01:15:32;;;;;;;6.53;1.33;;;12.60;86.70;;;;;;4992447;28;20030;-68
2021/10/01 01:18:02;;;;;;;1.67;0.70;;;12.60;86.90;;;;;;4993768;28;20031;-69
2021/10/01 01:20:45;;;;;;;2.40;0.85;;;12.60;86.70;;;;;;4993958;28;20041;-68
2021/10/01 01:23:36;;;;;;;3.75;1.00;;;12.60;86.80;;;;;;4993544;28;20062;-68
2021/10/01 01:26:31;;;;;;;5.05;1.23;;;12.60;87.10;;;;;;4993733;28;20026;-69
2021/10/01 01:29:11;;;;;;;3.25;0.88;;;12.60;87.20;;;;;;4993827;28;20065;-69
2021/10/01 01:31:54;;;;;;;8.63;1.30;;;12.60;87.00;;;;;;4993699;28;20026;-68
2021/10/01 01:34:40;;;;;;;5.68;1.17;;;12.60;87.10;;;;;;4993419;28;20092;-68
2021/10/01 01:37:10;;;;;;;6.30;0.90;;;12.60;87.40;;;;;;4974902;28;20027;-68
2021/10/01 01:39:38;;;;;;;3.70;1.15;;;12.60;87.60;;;;;;4955059;28;20027;-68
2021/10/01 01:42:06;;;;;;;10.20;1.20;;;12.60;87.30;;;;;;4954652;28;20035;-68
2021/10/01 01:44:33;;;;;;;1.80;0.80;;;12.60;87.50;;;;;;4954508;28;20027;-68
2021/10/01 01:47:00;;;;;;;8.27;1.42;;;12.50;87.40;;;;;;4953350;28;20035;-68
2021/10/01 01:49:28;;;;;;;2.53;1.05;;;12.50;88.40;;;;;;4954434;28;20058;-68
2021/10/01 01:51:57;;;;;;;5.28;1.15;;;12.50;87.90;;;;;;4955064;28;20027;-68
2021/10/01 01:54:22;;;;;;;;;;;12.50;87.90;;;;;;4954674;28;20053;-69
2021/10/01 01:56:49;;;;;;;4.10;1.45;;;12.60;88.10;;;;;;4954212;28;20369;-68
2021/10/01 01:59:15;;;;;;;2.22;0.90;;;12.60;87.80;;;;;;4954318;28;20050;-68
2021/10/01 02:01:41;;;;;;;4.95;1.20;;;12.60;87.60;;;;;;4954368;28;20054;-68
2021/10/01 02:04:09;;;;;;;7.97;1.08;;;12.60;88.00;;;;;;4954177;28;20054;-68
2021/10/01 02:06:35;;;;;;;3.30;1.17;;;12.60;87.90;;;;;;4954670;28;20047;-68
2021/10/01 02:09:02;;;;;;;4.22;1.10;;;12.60;87.80;;;;;;4954410;28;20028;-70
2021/10/01 02:11:29;;;;;;;3.83;1.08;;;12.60;87.90;;;;;;4953563;28;20043;-67
2021/10/01 02:13:56;;;;;;;5.65;1.08;;;12.60;87.80;;;;;;4954149;28;20039;-68
2021/10/01 02:16:24;;;;;;;3.28;0.82;;;12.60;87.90;;;;;;4953916;28;20084;-68
2021/10/01 02:18:50;;;;;;;;;;;12.60;87.70;;;;;;4954697;28;20039;-68
2021/10/01 02:21:19;;;;;;;4.25;0.95;;;12.60;87.90;;;;;;4953912;28;19910;-69
2021/10/01 02:23:45;;;;;;;;;;;12.70;87.90;;;;;;4954407;28;20032;-69
2021/10/01 02:26:34;;;;;;;6.35;1.00;;;12.60;88.10;;;;;;4953761;28;20276;-68
2021/10/01 02:29:14;;;;;;;5.10;1.40;;;12.60;87.80;;;;;;4953796;28;20074;-69
2021/10/01 02:31:54;;;;;;;5.00;1.10;;;12.60;88.10;;;;;;4953876;28;20031;-71
2021/10/01 02:34:29;;;;;;;5.07;1.60;;;12.60;88.40;;;;;;4953554;28;20098;-70
2021/10/01 02:36:55;;;;;;;2.83;1.13;;;12.60;88.00;;;;;;4954342;28;20047;-70
2021/10/01 02:39:21;;;;;;;3.25;1.00;;;12.60;88.10;;;;;;4953809;28;20031;-69
2021/10/01 02:41:46;;;;;;;3.25;0.98;;;12.60;88.30;;;;;;4953865;28;20035;-70
2021/10/01 02:44:12;;;;;;;5.20;0.98;;;12.60;88.30;;;;;;4953515;28;20027;-69
2021/10/01 02:46:37;;;;;;;2.00;1.17;;;12.60;88.20;;;;;;4953563;28;20421;-68
2021/10/01 02:49:04;;;;;;;5.22;1.77;;;12.60;88.30;;;;;;4953969;28;20073;-69
2021/10/01 02:51:34;;;;;;;4.60;1.20;;;12.60;88.10;;;;;;4953409;28;20031;-68
2021/10/01 02:54:09;;;;;;;6.32;1.45;;;12.60;88.30;;;;;;4953397;28;20458;-69
2021/10/01 02:56:47;;;;;;;6.32;0.90;;;12.60;88.40;;;;;;4953447;28;20055;-69
2021/10/01 02:59:15;;;;;;;7.07;1.40;;;12.60;88.40;;;;;;4953436;28;20115;-69
2021/10/01 03:01:45;;;;;;;4.53;1.40;;;12.60;88.40;;;;;;4952193;28;20039;-69
2021/10/01 03:04:12;;;;;;;4.72;1.10;;;12.60;88.40;;;;;;4953115;28;20023;-69
2021/10/01 03:06:44;;;;;;;6.35;1.00;;;12.60;88.50;;;;;;4954152;28;20039;-70
2021/10/01 03:09:10;;;;;;;3.05;1.02;;;12.50;88.60;;;;;;4952965;28;20246;-70
2021/10/01 03:11:38;;;;;;;3.75;0.98;;;12.50;88.60;;;;;;4952836;28;20134;-68
2021/10/01 03:14:07;;;;;;;6.38;1.30;;;12.50;88.70;;;;;;4953286;28;20027;-70
2021/10/01 03:16:34;;;;;;;6.50;1.77;;;12.50;88.80;;;;;;4953040;28;20042;-68
2021/10/01 03:19:01;;;;;;;9.07;1.10;;;12.50;89.30;;;;;;4953298;28;20113;-68
2021/10/01 03:21:27;;;;;;;5.65;1.63;;;12.50;89.60;;;;;;4953060;28;20138;-68
2021/10/01 03:23:53;;;;;;;5.13;0.75;;;12.50;89.30;;;;;;4952831;28;20039;-69
2021/10/01 03:26:19;;;;;;;9.07;1.60;;;12.50;89.20;;;;;;4952813;28;20358;-69
2021/10/01 03:28:46;;;;;;;2.03;1.30;;;12.40;89.30;;;;;;4952916;28;20040;-69
2021/10/01 03:31:12;;;;;;;3.60;1.05;;;12.50;89.10;;;;;;4952789;28;20042;-68
2021/10/01 03:33:39;;;;;;;6.10;1.10;;;12.40;88.90;;;;;;4953483;28;20028;-68
2021/10/01 03:36:06;;;;;;;3.53;1.08;;;12.40;89.10;;;;;;4952941;28;20035;-68
2021/10/01 03:38:32;;;;;;;7.50;1.75;;;12.50;89.20;;;;;;4956473;28;20028;-68
2021/10/01 03:40:59;;;;;;;3.53;1.13;;;12.50;89.20;;;;;;4956759;28;20054;-69
2021/10/01 03:43:26;;;;;;;3.92;1.30;;;12.50;89.00;;;;;;4956759;28;20514;-69
2021/10/01 03:45:53;;;;;;;6.77;1.10;;;12.40;89.10;;;;;;4957365;28;20070;-69
2021/10/01 03:48:20;;;;;;;4.70;1.20;;;12.40;89.00;;;;;;4957006;28;20043;-69
2021/10/01 03:50:46;;;;;;;3.17;1.27;;;12.40;89.20;;;;;;4956640;28;20114;-69
2021/10/01 03:53:11;;;;;;;2.92;1.17;;;12.40;89.40;;;;;;4956470;28;20111;-69
2021/10/01 03:55:37;;;;;;;4.38;1.13;;;12.30;89.40;;;;;;4956435;28;20054;-69
2021/10/01 03:58:02;;;;;;;3.83;1.10;;;12.30;89.40;;;;;;4956860;28;20023;-69
2021/10/01 04:00:28;;;;;;;4.40;1.30;;;12.30;89.20;;;;;;4955502;28;20031;-69
2021/10/01 04:02:54;;;;;;;2.75;1.00;;;12.30;89.30;;;;;;4956433;28;20041;-69
2021/10/01 04:05:20;;;;;;;6.95;1.50;;;12.30;89.20;;;;;;4956545;28;20421;-68
2021/10/01 04:07:45;;;;;;;4.68;1.65;;;12.30;89.40;;;;;;4956680;28;20450;-69
2021/10/01 04:10:12;;;;;;;5.68;1.10;;;12.30;89.50;;;;;;4956441;28;20051;-69
2021/10/01 04:12:38;;;;;;;5.72;1.13;;;12.30;89.60;;;;;;4956690;28;20522;-69
2021/10/01 04:15:06;;;;;;;2.30;0.88;;;12.30;90.00;;;;;;4956057;28;20127;-69
2021/10/01 04:17:31;;;;;;;2.97;1.03;;;12.20;89.60;;;;;;4956297;28;20442;-68
2021/10/01 04:19:58;;;;;;;3.13;1.00;;;12.20;89.50;;;;;;4956428;28;20107;-68
2021/10/01 04:22:24;;;;;;;5.45;1.40;;;12.20;89.70;;;;;;4956042;28;20089;-69
2021/10/01 04:24:49;;;;;;;3.38;0.88;;;12.20;89.80;;;;;;4956297;28;20461;-68
2021/10/01 04:27:15;;;;;;;5.68;1.30;;;12.20;89.70;;;;;;4954909;28;20122;-69
2021/10/01 04:29:42;;;;;;;5.10;1.10;;;12.20;89.70;;;;;;4955993;28;20041;-69
2021/10/01 04:32:08;;;;;;;3.33;0.98;;;12.10;89.70;;;;;;4956037;28;20126;-68
2021/10/01 04:34:42;;;;;;;4.65;1.17;;;12.20;89.70;;;;;;4955693;28;20118;-69
2021/10/01 04:37:08;;;;;;;2.72;0.90;;;12.20;89.70;;;;;;4955708;28;20023;-69
2021/10/01 04:39:33;;;;;;;4.85;1.23;;;12.20;89.60;;;;;;4956068;28;20365;-68
2021/10/01 04:41:59;;;;;;;7.55;1.13;;;12.20;90.00;;;;;;4955668;28;20521;-68
2021/10/01 04:44:24;;;;;;;3.40;0.90;;;12.10;90.00;;;;;;4955508;28;20074;-68
2021/10/01 04:46:50;;;;;;;5.70;1.20;;;12.10;90.00;;;;;;4955712;28;20035;-69
2021/10/01 04:49:15;;;;;;;6.70;1.17;;;12.00;90.00;;;;;;4953998;28;20450;-70
2021/10/01 04:51:41;;;;;;;6.40;0.95;;;12.10;90.00;;;;;;4955911;28;20453;-69
2021/10/01 04:54:07;;;;;;;2.25;0.70;;;12.10;90.10;;;;;;4954547;29;20461;-69
2021/10/01 04:56:32;;;;;;;6.25;1.13;;;12.10;90.00;;;;;;4955497;28;20043;-70
2021/10/01 04:58:58;;;;;;;2.78;0.98;;;12.00;90.20;;;;;;4955370;28;20491;-70
2021/10/01 05:01:23;;;;;;;2.95;0.82;;;12.00;90.20;;;;;;4955286;28;20027;-69
2021/10/01 05:03:49;;;;;;;3.85;1.02;;;12.00;90.30;;;;;;4955737;28;20051;-68
2021/10/01 05:06:15;;;;;;;9.07;1.40;;;12.00;90.20;;;;;;4955075;28;20027;-69
2021/10/01 05:08:40;;;;;;;4.25;0.90;;;12.00;90.40;;;;;;4955067;28;20173;-69
2021/10/01 05:11:06;;;;;;;5.90;1.23;;;11.90;90.30;;;;;;4954955;28;20347;-69
2021/10/01 05:13:31;;;;;;;4.65;0.73;;;12.00;90.30;;;;;;4955159;28;20513;-70
2021/10/01 05:15:57;;;;;;;4.15;1.02;;;12.00;90.50;;;;;;4955530;28;20027;-69
2021/10/01 05:18:23;;;;;;;3.67;0.93;;;11.90;90.50;;;;;;4955221;28;20035;-69
2021/10/01 05:20:49;;;;;;;6.38;1.20;;;11.90;90.50;;;;;;4955078;28;20186;-69
2021/10/01 05:23:15;;;;;;;4.32;1.10;;;11.90;90.40;;;;;;4957168;28;20126;-69
2021/10/01 05:25:40;;;;;;;8.23;1.25;;;11.90;90.50;;;;;;4979527;28;20499;-69
2021/10/01 05:28:06;;;;;;;5.55;1.08;;;11.90;90.50;;;;;;4993681;28;20063;-69
2021/10/01 05:30:32;;;;;;;5.22;0.77;;;11.90;90.30;;;;;;4993349;28;20358;-70
2021/10/01 05:32:58;;;;;;;3.10;0.90;;;11.80;90.40;;;;;;4993691;28;20453;-70
2021/10/01 05:35:24;;;;;;;7.40;1.70;;;11.80;90.50;;;;;;4993584;28;20064;-70
2021/10/01 05:37:50;;;;;;;5.45;1.73;;;11.80;90.60;;;;;;4993277;28;20469;-69
2021/10/01 05:40:15;;;;;;;4.18;1.00;;;11.80;90.50;;;;;;4992479;28;20108;-69
2021/10/01 05:42:41;;;;;;;3.53;0.95;;;11.80;90.50;;;;;;4992815;28;20677;-70
2021/10/01 05:45:08;;;;;;;5.00;0.93;;;11.80;90.60;;;;;;4993540;28;20499;-70
2021/10/01 05:47:34;;;;;;;2.72;1.10;;;11.90;90.70;;;;;;4993757;28;20472;-71
2021/10/01 05:50:04;;;;;;;7.30;1.30;;;12.00;90.60;;;;;;4993621;28;20736;-71
2021/10/01 05:52:49;;;;;;;1.95;0.88;;;12.00;90.50;;;;;;4992937;28;20578;-68
2021/10/01 05:55:15;;;;;;;3.53;1.00;;;11.90;90.50;;;;;;4992815;28;20034;-69
2021/10/01 05:57:43;;;;;;;7.03;1.30;;;11.90;90.50;;;;;;4993242;28;20097;-69
2021/10/01 06:00:09;;;;;;;2.95;0.73;;;12.00;90.50;;;;;;4992248;28;20093;-69
2021/10/01 06:02:35;;;;;;;4.30;1.15;;;12.00;90.40;;;;;;4992894;28;20033;-69
2021/10/01 06:05:00;;;;;;;4.07;1.02;;;12.00;90.50;;;;;;4992519;28;20042;-70
2021/10/01 06:07:26;;;;;;;3.03;1.05;;;12.00;90.40;;;;;;4991165;28;20034;-72
2021/10/01 06:09:51;;;;;;;3.08;0.95;;;12.10;90.40;;;;;;4992570;28;20254;-72
2021/10/01 06:12:18;;;;;;;2.97;0.60;;;12.10;90.20;;;;;;4992339;28;20030;-72
2021/10/01 06:14:44;;;;;;;2.83;0.82;;;12.10;90.20;;;;;;4992188;28;20042;-72
2021/10/01 06:17:12;;;;;;;8.45;1.48;;;12.20;90.30;;;;;;4992321;28;20030;-71
2021/10/01 06:19:40;;;;;;;9.15;3.53;;;12.20;90.10;;;;;;4991943;28;20495;-72
2021/10/01 06:22:07;;;;;;;5.28;2.05;;;12.30;90.20;;;;;;4991040;28;20414;-73
2021/10/01 06:24:35;;;;;;;4.03;0.75;;;12.30;90.10;;;;;;4992532;28;20033;-73
2021/10/01 06:27:01;;;;;;;;;;;12.30;90.00;;;;;;4992247;28;20031;-71
2021/10/01 06:29:27;;;;;;;13.32;4.20;;;12.40;90.00;;;;;;4991822;28;19914;-72
2021/10/01 06:31:52;;;;;;;4.95;1.30;;;12.40;90.00;;;;;;4991007;28;20027;-72
2021/10/01 06:34:18;;;;;;;4.45;1.10;;;12.40;90.00;;;;;;4991684;28;20230;-72
2021/10/01 06:36:44;;;;;;;7.93;1.60;;;12.50;89.80;;;;;;4991971;28;20052;-70
2021/10/01 06:39:10;;;;;;;5.18;1.15;;;12.50;89.80;;;;;;4992132;28;20049;-71
2021/10/01 06:41:37;;;;;;;4.80;1.00;;;12.50;89.30;;;;;;4992446;28;20046;-71
2021/10/01 06:44:05;;;;;;;5.85;1.13;;;12.50;89.00;;;;;;4991899;28;20113;-74
2021/10/01 06:46:56;;;;;;;2.83;1.15;;;12.60;89.30;;;;;;4991456;28;20031;-70
2021/10/01 07:21:01;;;;;;;;;;;12.80;88.50;;;;;;4991957;28;20414;-72
2021/10/01 07:21:05;;;;;;;2.83;0.82;;;12.80;88.30;;;;;;4984275;28;19983;-72
2021/10/01 07:22:52;;;;;;;2.85;1.00;;;13.10;87.80;;;;;;4971768;28;20139;-70
2021/10/01 07:36:47;;;;;;;6.18;1.00;;;13.20;87.80;;;;;;4969260;28;20138;-70
2021/10/01 07:39:27;;;;;;;2.35;0.90;;;13.30;87.90;;;;;;4971288;28;20038;-71
2021/10/01 08:20:15;;;;;;;5.45;1.27;;;14.10;86.10;;;;;;4971020;28;20121;-69
2021/10/01 08:22:41;;;;;;;4.90;1.15;;;14.20;86.00;;;;;;4971955;28;20055;-70
2021/10/01 08:25:08;;;;;;;10.52;1.55;;;14.20;85.50;;;;;;4974587;28;20464;-70
2021/10/01 08:27:35;;;;;;;3.20;0.85;;;14.30;85.30;;;;;;4975008;28;20027;-70
2021/10/01 08:30:04;;;;;;;6.87;0.80;;;14.20;85.30;;;;;;4974535;28;20039;-71
2021/10/01 08:32:29;;;;;;;4.88;0.88;;;14.30;85.40;;;;;;4974364;28;20101;-70
2021/10/01 08:34:55;;;;;;;4.00;0.80;;;14.30;84.90;;;;;;4974736;28;20043;-72
2021/10/01 08:37:21;;;;;;;3.95;1.05;;;14.30;85.10;;;;;;4974575;28;20026;-71
2021/10/01 08:39:46;;;;;;;2.90;0.70;;;14.40;85.10;;;;;;4975651;28;20152;-71
2021/10/01 08:42:12;;;;;;;2.75;0.90;;;14.30;84.90;;;;;;4973177;28;20090;-71
2021/10/01 08:44:38;;;;;;;10.00;1.00;;;14.40;85.10;;;;;;4974547;28;20079;-72
2021/10/01 08:47:04;;;;;;;4.70;1.42;;;14.40;85.00;;;;;;4974384;28;20050;-72
2021/10/01 08:49:31;;;;;;;10.18;1.58;;;14.40;85.20;;;;;;4974405;28;20031;-70
2021/10/01 08:51:57;;;;;;;2.97;0.60;;;14.50;85.10;;;;;;4974446;28;20027;-69
2021/10/01 08:54:24;;;;;;;9.10;0.93;;;14.50;84.90;;;;;;4973971;28;20385;-69
2021/10/01 08:56:50;;;;;;;3.97;0.93;;;14.50;85.00;;;;;;4973950;28;20023;-73
2021/10/01 08:59:16;;;;;;;7.25;0.95;;;14.50;85.10;;;;;;4974192;28;20478;-74
2021/10/01 09:01:42;;;;;;;3.33;0.70;;;14.60;85.00;;;;;;4974019;28;20034;-73
2021/10/01 09:04:10;;;;;;;3.30;0.68;;;14.60;84.60;;;;;;4974002;28;20039;-73
2021/10/01 09:06:36;;;;;;;6.63;0.70;;;14.70;84.30;;;;;;4974501;28;20114;-73
2021/10/01 09:09:07;;;;;;;2.65;0.90;;;14.70;84.00;;;;;;4974179;28;20039;-70
2021/10/01 09:11:35;;;;;;;5.25;0.90;;;14.80;84.30;;;;;;4973654;28;20117;-72
2021/10/01 09:14:06;;;;;;;4.78;0.82;;;15.00;84.00;;;;;;4973881;28;20046;-72
2021/10/01 09:16:32;;;;;;;3.30;0.80;;;15.20;84.10;;;;;;4973344;28;20461;-72
2021/10/01 09:18:59;;;;;;;9.70;3.60;;;15.30;83.60;;;;;;4974203;28;20110;-69
2021/10/01 09:21:25;;;;;;;5.30;1.17;;;15.40;83.70;;;;;;4973633;28;20027;-70
2021/10/01 09:23:57;;;;;;;5.90;1.05;;;15.60;83.30;;;;;;4973450;28;20035;-71
2021/10/01 09:26:25;;;;;;;4.20;0.95;;;15.80;82.90;;;;;;4972591;28;20172;-71
2021/10/01 09:29:07;;;;;;;6.13;0.73;;;16.00;82.90;;;;;;4973355;28;20432;-70
2021/10/01 09:31:47;;;;;;;4.95;0.73;;;16.00;81.70;;;;;;4973586;28;20121;-71
2021/10/01 09:34:24;;;;;;;7.15;1.20;;;16.00;82.10;;;;;;4972563;28;20023;-71
2021/10/01 09:37:11;;;;;;;6.45;0.75;;;16.20;82.00;;;;;;4973772;28;20122;-72
2021/10/01 09:39:40;;;;;;;4.45;1.00;;;16.20;82.10;;;;;;4973381;28;20469;-72
2021/10/01 09:42:15;;;;;;;7.50;0.90;;;16.10;81.80;;;;;;4973105;28;20042;-70
2021/10/01 09:44:44;;;;;;;3.38;0.70;;;16.20;81.60;;;;;;4973124;28;20042;-69
2021/10/01 09:47:10;;;;;;;2.60;0.77;;;16.20;82.20;;;;;;4971937;28;20446;-70
2021/10/01 09:49:35;;;;;;;5.13;1.10;;;16.30;82.20;;;;;;4973484;28;20062;-71
2021/10/01 09:52:02;;;;;;;4.15;0.68;;;16.50;82.10;;;;;;4973455;28;20031;-71
2021/10/01 09:54:29;;;;;;;3.45;0.98;;;16.80;80.80;;;;;;4972964;28;20487;-71
2021/10/01 09:57:04;;;;;;;6.35;1.15;;;17.10;80.10;;;;;;4972889;28;20027;-71
2021/10/01 09:59:31;;;;;;;2.55;0.90;;;17.70;79.70;;;;;;4973080;28;20031;-72
2021/10/01 10:02:06;;;;;;;3.87;0.77;;;18.40;78.70;;;;;;4972829;28;20410;-73
2021/10/01 10:04:33;;;;;;;5.43;1.00;;;18.90;77.60;;;;;;4973022;28;20426;-73
2021/10/01 10:07:17;;;;;;;4.53;1.13;;;18.80;77.00;;;;;;4973124;28;20469;-71
2021/10/01 10:09:46;;;;;;;3.90;1.50;;;19.10;77.20;;;;;;4972872;28;20050;-71
2021/10/01 10:12:15;;;;;;;5.50;1.80;;;19.70;78.50;;;;;;4972544;28;20034;-73
2021/10/01 10:14:44;;;;;;;5.35;0.60;;;20.30;75.00;;;;;;4971572;28;20508;-73
2021/10/01 10:17:13;;;;;;;;;;;21.20;74.70;;;;;;4972254;28;20031;-73
2021/10/01 10:19:39;;;;;;;3.90;1.13;;;21.70;71.10;;;;;;4972883;28;19914;-72
2021/10/01 10:22:05;;;;;;;6.28;0.82;;;21.60;71.30;;;;;;4972012;28;20247;-72
2021/10/01 10:24:31;;;;;;;2.05;0.60;;;21.50;69.30;;;;;;4972721;28;20070;-73
2021/10/01 10:26:57;;;;;;;5.18;0.82;;;21.10;69.40;;;;;;4972474;28;20026;-70
2021/10/01 10:29:25;;;;;;;3.55;1.15;;;20.70;69.00;;;;;;4971486;28;20114;-72
2021/10/01 10:31:51;;;;;;;5.85;1.25;;;21.00;70.50;;;;;;4972494;28;20043;-72
2021/10/01 10:34:27;;;;;;;2.70;0.70;;;21.40;69.70;;;;;;4972533;28;20034;-71
2021/10/01 10:37:10;;;;;;;6.57;1.05;;;22.30;69.00;;;;;;4972961;28;20029;-73
2021/10/01 10:39:42;;;;;;;3.83;1.05;;;22.80;67.40;;;;;;4972428;28;20051;-73
2021/10/01 10:42:10;;;;;;;7.32;1.52;;;23.10;67.70;;;;;;4972590;28;20354;-75
2021/10/01 10:44:41;;;;;;;6.00;2.33;;;23.60;66.40;;;;;;4972134;28;20114;-73
2021/10/01 10:47:07;;;;;;;4.40;1.00;;;24.50;64.20;;;;;;4972345;28;20469;-73
2021/10/01 10:49:32;;;;;;;3.40;1.40;;;25.10;60.80;;;;;;4971003;28;20125;-74
2021/10/01 10:51:58;;;;;;;3.35;0.90;;;25.70;58.30;;;;;;4972834;28;20087;-73
2021/10/01 10:54:29;;;;;;;1.35;0.65;;;26.40;58.00;;;;;;4971990;28;20050;-71
2021/10/01 10:57:23;;;;;;;6.13;0.98;;;27.00;57.40;;;;;;4972166;28;20109;-71
2021/10/01 10:59:54;;;;;;;3.00;0.80;;;27.40;54.20;;;;;;4971558;28;20035;-71
2021/10/01 11:02:33;;;;;;;4.50;1.15;;;27.70;53.90;;;;;;4971937;28;20035;-70
2021/10/01 11:05:21;;;;;;;3.63;1.10;;;28.00;52.30;;;;;;4971929;28;20039;-72
2021/10/01 11:07:50;;;;;;;5.90;0.90;;;28.30;50.40;;;;;;4971484;28;20042;-73
2021/10/01 11:10:46;;;;;;;4.80;1.10;;;28.30;50.40;;;;;;4971932;28;20074;-72
2021/10/01 11:13:23;;;;;;;8.43;1.02;;;29.00;51.00;;;;;;4971343;28;20031;-72
2021/10/01 11:16:11;;;;;;;;;;;29.20;48.10;;;;;;4972565;28;20036;-72
2021/10/01 11:18:44;;;;;;;2.85;0.77;;;28.80;47.10;;;;;;4971974;28;19918;-73
2021/10/01 11:21:42;;;;;;;2.35;0.80;;;29.20;48.00;;;;;;4972373;28;20121;-71
2021/10/01 11:24:14;;;;;;;2.20;0.90;;;28.90;45.70;;;;;;4972189;28;20042;-72
2021/10/01 11:26:47;;;;;;;4.90;0.75;;;29.20;45.70;;;;;;4972254;28;20039;-70
2021/10/01 11:29:28;;;;;;;1.98;1.60;;;28.60;45.10;;;;;;4971974;28;20039;-72
2021/10/01 11:32:01;;;;;;;4.85;2.42;;;28.10;44.80;;;;;;4971986;28;20046;-72
2021/10/01 11:34:39;;;;;;;3.20;0.77;;;28.10;45.10;;;;;;4971722;28;20038;-72
2021/10/01 11:37:23;;;;;;;1.35;0.70;;;28.00;45.10;;;;;;4971878;28;20049;-71
2021/10/01 11:39:50;;;;;;;4.13;0.80;;;27.20;45.50;;;;;;4972557;28;20027;-72
2021/10/01 11:42:21;;;;;;;4.90;1.13;;;27.00;45.70;;;;;;4970943;28;20126;-71
2021/10/01 11:44:48;;;;;;;3.33;0.70;;;26.40;45.80;;;;;;4971954;28;20034;-73
2021/10/01 11:47:13;;;;;;;6.13;1.00;;;26.00;45.60;;;;;;4971694;28;20118;-72
2021/10/01 11:49:39;;;;;;;2.20;0.70;;;25.70;46.50;;;;;;4971754;28;20114;-72
2021/10/01 11:52:09;;;;;;;4.03;1.02;;;25.50;45.80;;;;;;4971679;28;20043;-71
2021/10/01 11:54:36;;;;;;;1.63;0.68;;;25.10;46.60;;;;;;4972159;28;20808;-71
2021/10/01 11:57:08;;;;;;;5.15;0.90;;;24.90;46.60;;;;;;4971693;28;20035;-72
2021/10/01 12:00:03;;;;;;;5.65;0.93;;;24.90;46.80;;;;;;4973371;28;20121;-72
2021/10/01 12:02:31;;;;;;;3.03;0.52;;;24.60;46.50;;;;;;4975851;28;20118;-70
2021/10/01 12:04:57;;;;;;;3.63;0.90;;;24.20;46.30;;;;;;4975657;28;20037;-71
2021/10/01 12:07:23;;;;;;;2.65;0.85;;;23.90;46.70;;;;;;4975719;28;20023;-71
2021/10/01 12:10:08;;;;;;;1.33;0.70;;;23.60;46.30;;;;;;4976024;28;20031;-71
2021/10/01 12:12:34;;;;;;;2.67;0.70;;;23.40;47.10;;;;;;4975526;28;20045;-72
2021/10/01 12:15:00;;;;;;;5.68;1.92;;;23.00;47.50;;;;;;4975817;28;20113;-73
2021/10/01 12:17:26;;;;;;;5.13;1.10;;;22.70;47.50;;;;;;4975676;28;20039;-71
2021/10/01 12:19:58;;;;;;;3.80;0.80;;;22.50;47.00;;;;;;4975546;28;20089;-70
2021/10/01 12:22:28;;;;;;;2.97;0.70;;;22.50;47.90;;;;;;4975377;28;20086;-72
2021/10/01 12:24:55;;;;;;;4.55;0.85;;;22.40;47.90;;;;;;4975910;28;20101;-71
2021/10/01 12:27:32;;;;;;;2.60;0.60;;;22.40;48.40;;;;;;4975594;28;20093;-71
2021/10/01 12:29:58;;;;;;;3.28;0.75;;;22.40;48.20;;;;;;4975121;28;20035;-73
2021/10/01 12:32:24;;;;;;;2.95;0.73;;;22.30;48.10;;;;;;4975533;28;20070;-71
2021/10/01 12:34:56;;;;;;;2.50;0.70;;;22.20;48.70;;;;;;4975195;28;20038;-69
2021/10/01 12:37:24;;;;;;;3.28;1.63;;;22.00;48.40;;;;;;4975250;28;20488;-71
2021/10/01 12:39:54;;;;;;;1.92;0.68;;;22.00;49.00;;;;;;4975860;28;20027;-71
2021/10/01 12:42:25;;;;;;;2.47;0.60;;;21.90;48.20;;;;;;4975240;28;20043;-72
2021/10/01 12:45:15;;;;;;;1.88;0.52;;;21.80;49.00;;;;;;4974614;28;20097;-72
2021/10/01 12:47:43;;;;;;;2.17;0.75;;;21.80;48.80;;;;;;4975122;28;20041;-71
2021/10/01 12:50:10;;;;;;;;;;;21.80;49.30;;;;;;4975597;28;20137;-71
2021/10/01 12:52:53;;;;;;;3.55;0.82;;;21.80;48.90;;;;;;4973999;28;19914;-71
2021/10/01 12:55:19;;;;;;;2.45;0.55;;;21.70;49.10;;;;;;4974836;28;20373;-71
2021/10/01 12:57:51;;;;;;;3.22;0.90;;;21.60;48.80;;;;;;4975289;28;20148;-71
2021/10/01 13:00:18;;;;;;;3.03;0.65;;;21.50;49.00;;;;;;4974309;28;20041;-71
2021/10/01 13:02:52;;;;;;;1.27;0.73;;;21.60;49.80;;;;;;4974932;28;20043;-70
2021/10/01 13:05:23;;;;;;;4.80;0.80;;;21.40;48.80;;;;;;4974938;28;20062;-71
2021/10/01 13:08:13;;;;;;;1.55;0.73;;;21.20;49.20;;;;;;4974664;28;20042;-70
2021/10/01 13:11:00;;;;;;;3.38;1.30;;;21.20;49.70;;;;;;4972837;28;20042;-70
2021/10/01 13:13:28;;;;;;;4.05;2.20;;;21.10;49.80;;;;;;4973774;28;20047;-71
2021/10/01 13:15:58;;;;;;;2.47;0.93;;;21.00;50.10;;;;;;4973623;28;20030;-71
2021/10/01 13:21:09;;;;;;;4.35;0.98;;;20.80;50.40;;;;;;4974621;28;20022;-71
2021/10/01 13:23:46;;;;;;;3.92;1.02;;;20.90;50.60;;;;;;4973304;28;20058;-69
2021/10/01 13:26:14;;;;;;;1.27;0.70;;;21.00;51.70;;;;;;4974521;28;20462;-69
2021/10/01 13:28:45;;;;;;;1.88;0.60;;;21.10;51.60;;;;;;4974127;28;20465;-70
2021/10/01 13:31:11;;;;;;;2.88;0.57;;;21.00;51.20;;;;;;4974012;28;20085;-70
2021/10/01 13:33:37;;;;;;;2.63;0.70;;;20.90;50.80;;;;;;4974810;28;20026;-70
2021/10/01 13:36:02;;;;;;;4.82;0.82;;;20.90;50.80;;;;;;4974227;28;20034;-70
2021/10/01 13:38:33;;;;;;;5.65;0.60;;;20.70;50.60;;;;;;4974170;28;20189;-71
2021/10/01 13:41:01;;;;;;;1.58;0.55;;;20.60;50.50;;;;;;4974191;28;20174;-70
2021/10/01 13:43:27;;;;;;;2.58;0.60;;;20.60;50.90;;;;;;4973955;28;20110;-70
2021/10/01 13:45:54;;;;;;;1.58;0.47;;;20.70;51.70;;;;;;4974731;28;20026;-69
2021/10/01 13:48:19;;;;;;;0.93;0.50;;;20.60;51.60;;;;;;4974090;28;20035;-71
2021/10/01 13:50:45;;;;;;;7.90;0.60;;;20.50;50.50;;;;;;4973941;28;20034;-70
2021/10/01 13:53:11;;;;;;;1.02;0.47;;;20.50;51.20;;;;;;4974136;28;20047;-70
2021/10/01 13:55:37;;;;;;;3.42;0.85;;;20.50;51.40;;;;;;4973699;28;20042;-70
2021/10/01 13:58:02;;;;;;;2.05;0.70;;;20.50;51.60;;;;;;4974445;28;20027;-69
2021/10/01 14:00:28;;;;;;;3.28;0.70;;;20.50;51.90;;;;;;4973402;28;20045;-69
2021/10/01 14:02:54;;;;;;;4.10;1.00;;;20.50;51.90;;;;;;4973752;28;20037;-69
2021/10/01 14:05:19;;;;;;;1.60;0.60;;;20.50;51.70;;;;;;4973661;28;20094;-69
2021/10/01 14:07:46;;;;;;;1.38;0.70;;;20.50;50.50;;;;;;4974243;28;20031;-70
2021/10/01 14:10:16;;;;;;;5.95;2.30;;;20.50;51.10;;;;;;4973402;28;20047;-69
2021/10/01 14:12:43;;;;;;;2.20;0.70;;;20.50;50.90;;;;;;4973820;28;20129;-70
2021/10/01 14:15:10;;;;;;;3.30;0.80;;;20.50;50.10;;;;;;4973087;28;20042;-70
2021/10/01 14:17:37;;;;;;;3.53;0.60;;;20.40;50.30;;;;;;4972150;28;20042;-71
2021/10/01 14:20:05;;;;;;;0.93;0.45;;;20.50;50.60;;;;;;4973183;28;20045;-72